sensor_id;sensor_type;location;lat;lon;timestamp;temperature;humidity
11505;DHT22;5809;53.262;10.408;2023-10-08T00:01:54;10.40;99.90
11505;DHT22;5809;53.262;10.408;2023-10-08T00:04:21;10.40;99.90
11505;DHT22;5809;53.262;10.408;2023-10-08T00:09:18;10.30;99.90
11505;DHT22;5809;53.262;10.408;2023-10-08T00:11:47;10.30;99.90
11505;DHT22;5809;53.262;10.408;2023-10-08T00:14:19;10.30;99.90
11505;DHT22;5809;53.262;10.408;2023-10-08T00:16:47;10.30;99.90
11505;DHT22;5809;53.262;10.408;2023-10-08T00:19:15;10.30;99.90
11505;DHT22;5809;53.262;10.408;2023-10-08T00:24:14;10.30;99.90
11505;DHT22;5809;53.262;10.408;2023-10-08T00:29:10;10.30;99.90
11505;DHT22;5809;53.262;10.408;2023-10-08T00:31:43;10.30;99.90
11505;DHT22;5809;53.262;10.408;2023-10-08T00:34:11;10.30;99.90
11505;DHT22;5809;53.262;10.408;2023-10-08T00:36:40;10.20;99.90
11505;DHT22;5809;53.262;10.408;2023-10-08T00:41:54;10.20;99.90
11505;DHT22;5809;53.262;10.408;2023-10-08T00:44:30;10.20;99.90
11505;DHT22;5809;53.262;10.408;2023-10-08T00:47:11;10.20;99.90
11505;DHT22;5809;53.262;10.408;2023-10-08T00:55:08;10.10;99.90
11505;DHT22;5809;53.262;10.408;2023-10-08T00:57:52;8.70;99.90
11505;DHT22;5809;53.262;10.408;2023-10-08T01:00:25;10.20;99.90
11505;DHT22;5809;53.262;10.408;2023-10-08T01:03:05;10.10;99.90
11505;DHT22;5809;53.262;10.408;2023-10-08T01:08:14;10.10;99.90
11505;DHT22;5809;53.262;10.408;2023-10-08T01:13:25;10.10;99.90
11505;DHT22;5809;53.262;10.408;2023-10-08T01:15:59;10.10;99.90
11505;DHT22;5809;53.262;10.408;2023-10-08T01:18:27;10.10;99.90
11505;DHT22;5809;53.262;10.408;2023-10-08T01:20:58;10.10;99.90
11505;DHT22;5809;53.262;10.408;2023-10-08T01:23:34;10.10;99.90
11505;DHT22;5809;53.262;10.408;2023-10-08T01:26:01;10.10;99.90
11505;DHT22;5809;53.262;10.408;2023-10-08T01:28:39;10.10;99.90
11505;DHT22;5809;53.262;10.408;2023-10-08T01:33:38;10.00;99.90
11505;DHT22;5809;53.262;10.408;2023-10-08T01:36:12;10.00;99.90
11505;DHT22;5809;53.262;10.408;2023-10-08T01:38:41;10.00;99.90
11505;DHT22;5809;53.262;10.408;2023-10-08T01:41:08;10.00;99.90
11505;DHT22;5809;53.262;10.408;2023-10-08T01:43:44;10.00;99.90
11505;DHT22;5809;53.262;10.408;2023-10-08T01:46:11;10.00;99.90
11505;DHT22;5809;53.262;10.408;2023-10-08T01:48:38;10.10;99.90
11505;DHT22;5809;53.262;10.408;2023-10-08T01:56:06;10.00;99.90
11505;DHT22;5809;53.262;10.408;2023-10-08T02:01:00;10.00;99.90
11505;DHT22;5809;53.262;10.408;2023-10-08T02:03:27;10.00;99.90
11505;DHT22;5809;53.262;10.408;2023-10-08T02:05:54;10.00;99.90
11505;DHT22;5809;53.262;10.408;2023-10-08T02:10:52;10.00;99.90
11505;DHT22;5809;53.262;10.408;2023-10-08T02:13:20;10.10;99.90
11505;DHT22;5809;53.262;10.408;2023-10-08T02:15:50;10.00;99.90
11505;DHT22;5809;53.262;10.408;2023-10-08T02:20:44;10.00;99.90
11505;DHT22;5809;53.262;10.408;2023-10-08T02:25:38;10.00;99.90
11505;DHT22;5809;53.262;10.408;2023-10-08T02:28:06;10.00;99.90
11505;DHT22;5809;53.262;10.408;2023-10-08T02:30:35;10.00;99.90
11505;DHT22;5809;53.262;10.408;2023-10-08T02:33:04;10.00;99.90
11505;DHT22;5809;53.262;10.408;2023-10-08T02:35:39;10.00;99.90
11505;DHT22;5809;53.262;10.408;2023-10-08T02:40:37;10.00;99.90
11505;DHT22;5809;53.262;10.408;2023-10-08T02:43:10;10.00;99.90
11505;DHT22;5809;53.262;10.408;2023-10-08T02:45:38;10.00;99.90
11505;DHT22;5809;53.262;10.408;2023-10-08T02:48:07;10.00;99.90
11505;DHT22;5809;53.262;10.408;2023-10-08T02:50:40;10.00;99.90
11505;DHT22;5809;53.262;10.408;2023-10-08T02:55:36;9.90;99.90
11505;DHT22;5809;53.262;10.408;2023-10-08T02:58:07;9.90;99.90
11505;DHT22;5809;53.262;10.408;2023-10-08T03:00:40;9.90;99.90
11505;DHT22;5809;53.262;10.408;2023-10-08T03:03:07;9.90;99.90
11505;DHT22;5809;53.262;10.408;2023-10-08T03:05:43;9.90;99.90
11505;DHT22;5809;53.262;10.408;2023-10-08T03:08:11;9.90;99.90
11505;DHT22;5809;53.262;10.408;2023-10-08T03:10:38;9.90;99.90
11505;DHT22;5809;53.262;10.408;2023-10-08T03:13:07;9.90;99.90
11505;DHT22;5809;53.262;10.408;2023-10-08T03:15:41;9.90;99.90
11505;DHT22;5809;53.262;10.408;2023-10-08T03:18:33;9.90;99.90
11505;DHT22;5809;53.262;10.408;2023-10-08T03:21:02;9.90;99.90
11505;DHT22;5809;53.262;10.408;2023-10-08T03:26:01;9.90;99.90
11505;DHT22;5809;53.262;10.408;2023-10-08T03:28:36;9.90;99.90
11505;DHT22;5809;53.262;10.408;2023-10-08T03:31:04;9.90;99.90
11505;DHT22;5809;53.262;10.408;2023-10-08T03:33:32;9.90;99.90
11505;DHT22;5809;53.262;10.408;2023-10-08T03:36:01;9.90;99.90
11505;DHT22;5809;53.262;10.408;2023-10-08T03:38:36;9.90;99.90
11505;DHT22;5809;53.262;10.408;2023-10-08T03:41:16;9.90;99.90
11505;DHT22;5809;53.262;10.408;2023-10-08T03:43:46;9.80;99.90
11505;DHT22;5809;53.262;10.408;2023-10-08T03:46:23;9.90;99.90
11505;DHT22;5809;53.262;10.408;2023-10-08T03:48:50;9.80;99.90
11505;DHT22;5809;53.262;10.408;2023-10-08T03:53:47;9.80;99.90
11505;DHT22;5809;53.262;10.408;2023-10-08T03:56:28;9.80;99.90
11505;DHT22;5809;53.262;10.408;2023-10-08T03:58:57;9.80;99.90
11505;DHT22;5809;53.262;10.408;2023-10-08T04:01:27;9.80;99.90
11505;DHT22;5809;53.262;10.408;2023-10-08T04:03:58;9.80;99.90
11505;DHT22;5809;53.262;10.408;2023-10-08T04:06:27;13.10;99.90
11505;DHT22;5809;53.262;10.408;2023-10-08T04:09:04;9.70;99.90
11505;DHT22;5809;53.262;10.408;2023-10-08T04:11:49;9.70;99.90
11505;DHT22;5809;53.262;10.408;2023-10-08T04:14:20;9.70;99.90
11505;DHT22;5809;53.262;10.408;2023-10-08T04:16:48;9.60;99.90
11505;DHT22;5809;53.262;10.408;2023-10-08T04:19:17;9.60;99.90
11505;DHT22;5809;53.262;10.408;2023-10-08T04:21:44;9.60;99.90
11505;DHT22;5809;53.262;10.408;2023-10-08T04:24:20;9.70;99.90
11505;DHT22;5809;53.262;10.408;2023-10-08T04:26:54;9.70;99.90
11505;DHT22;5809;53.262;10.408;2023-10-08T04:29:22;9.70;99.90
11505;DHT22;5809;53.262;10.408;2023-10-08T04:31:51;12.70;99.90
11505;DHT22;5809;53.262;10.408;2023-10-08T04:34:27;9.70;99.90
11505;DHT22;5809;53.262;10.408;2023-10-08T04:39:26;12.70;99.90
11505;DHT22;5809;53.262;10.408;2023-10-08T04:41:58;9.70;99.90
11505;DHT22;5809;53.262;10.408;2023-10-08T04:44:31;9.60;99.90
11505;DHT22;5809;53.262;10.408;2023-10-08T04:47:01;9.60;99.90
11505;DHT22;5809;53.262;10.408;2023-10-08T04:49:32;9.60;99.90
11505;DHT22;5809;53.262;10.408;2023-10-08T04:52:01;9.60;99.90
11505;DHT22;5809;53.262;10.408;2023-10-08T04:54:31;9.60;99.90
11505;DHT22;5809;53.262;10.408;2023-10-08T04:56:58;9.60;99.90
11505;DHT22;5809;53.262;10.408;2023-10-08T04:59:28;9.60;99.90
11505;DHT22;5809;53.262;10.408;2023-10-08T05:02:01;9.60;99.90
11505;DHT22;5809;53.262;10.408;2023-10-08T05:04:59;9.60;99.90
11505;DHT22;5809;53.262;10.408;2023-10-08T05:07:49;9.60;99.90
11505;DHT22;5809;53.262;10.408;2023-10-08T05:16:22;9.50;99.90
11505;DHT22;5809;53.262;10.408;2023-10-08T05:19:04;9.50;99.90
11505;DHT22;5809;53.262;10.408;2023-10-08T05:21:40;9.50;99.90
11505;DHT22;5809;53.262;10.408;2023-10-08T05:24:28;9.50;99.90
11505;DHT22;5809;53.262;10.408;2023-10-08T05:27:04;9.50;99.90
11505;DHT22;5809;53.262;10.408;2023-10-08T05:30:03;9.40;99.90
11505;DHT22;5809;53.262;10.408;2023-10-08T05:35:33;9.40;99.90
11505;DHT22;5809;53.262;10.408;2023-10-08T05:38:16;9.40;99.90
11505;DHT22;5809;53.262;10.408;2023-10-08T05:40:51;9.40;99.90
11505;DHT22;5809;53.262;10.408;2023-10-08T05:43:32;9.40;99.90
11505;DHT22;5809;53.262;10.408;2023-10-08T05:46:16;9.40;99.90
11505;DHT22;5809;53.262;10.408;2023-10-08T05:49:00;9.40;99.90
11505;DHT22;5809;53.262;10.408;2023-10-08T05:51:30;9.40;99.90
11505;DHT22;5809;53.262;10.408;2023-10-08T05:54:20;9.40;99.90
11505;DHT22;5809;53.262;10.408;2023-10-08T05:57:19;9.40;99.90
11505;DHT22;5809;53.262;10.408;2023-10-08T06:06:00;9.40;99.90
11505;DHT22;5809;53.262;10.408;2023-10-08T06:12:23;9.40;99.90
11505;DHT22;5809;53.262;10.408;2023-10-08T06:28:12;9.30;99.90
11505;DHT22;5809;53.262;10.408;2023-10-08T06:30:40;9.40;99.90
11505;DHT22;5809;53.262;10.408;2023-10-08T06:33:07;9.90;99.90
11505;DHT22;5809;53.262;10.408;2023-10-08T06:38:02;11.30;99.90
11505;DHT22;5809;53.262;10.408;2023-10-08T06:40:33;11.80;99.90
11505;DHT22;5809;53.262;10.408;2023-10-08T06:43:11;11.90;99.90
11505;DHT22;5809;53.262;10.408;2023-10-08T06:45:40;11.80;99.90
11505;DHT22;5809;53.262;10.408;2023-10-08T06:48:08;11.90;99.90
11505;DHT22;5809;53.262;10.408;2023-10-08T06:50:35;12.20;99.90
11505;DHT22;5809;53.262;10.408;2023-10-08T06:53:03;12.60;99.90
11505;DHT22;5809;53.262;10.408;2023-10-08T06:58:01;13.20;99.90
11505;DHT22;5809;53.262;10.408;2023-10-08T07:00:33;13.50;99.90
11505;DHT22;5809;53.262;10.408;2023-10-08T07:03:08;14.00;99.90
11505;DHT22;5809;53.262;10.408;2023-10-08T07:05:37;14.10;99.90
11505;DHT22;5809;53.262;10.408;2023-10-08T07:08:09;14.30;99.90
11505;DHT22;5809;53.262;10.408;2023-10-08T07:10:39;14.60;99.90
11505;DHT22;5809;53.262;10.408;2023-10-08T07:13:07;14.80;99.90
11505;DHT22;5809;53.262;10.408;2023-10-08T07:15:36;15.00;99.90
11505;DHT22;5809;53.262;10.408;2023-10-08T07:20:39;15.60;99.90
11505;DHT22;5809;53.262;10.408;2023-10-08T07:23:08;15.80;99.90
11505;DHT22;5809;53.262;10.408;2023-10-08T07:25:52;16.40;99.90
11505;DHT22;5809;53.262;10.408;2023-10-08T07:30:52;17.60;99.90
11505;DHT22;5809;53.262;10.408;2023-10-08T07:38:27;18.60;99.90
11505;DHT22;5809;53.262;10.408;2023-10-08T07:40:56;18.70;99.90
11505;DHT22;5809;53.262;10.408;2023-10-08T07:48:20;19.10;99.90
11505;DHT22;5809;53.262;10.408;2023-10-08T07:50:55;19.30;99.90
11505;DHT22;5809;53.262;10.408;2023-10-08T07:58:18;19.70;99.90
11505;DHT22;5809;53.262;10.408;2023-10-08T08:00:45;19.70;99.90
11505;DHT22;5809;53.262;10.408;2023-10-08T08:03:21;19.90;99.90
11505;DHT22;5809;53.262;10.408;2023-10-08T08:08:19;20.10;99.90
11505;DHT22;5809;53.262;10.408;2023-10-08T08:10:48;20.50;99.90
11505;DHT22;5809;53.262;10.408;2023-10-08T08:13:15;20.60;99.90
11505;DHT22;5809;53.262;10.408;2023-10-08T08:15:46;20.80;99.90
11505;DHT22;5809;53.262;10.408;2023-10-08T08:18:16;20.80;99.90
11505;DHT22;5809;53.262;10.408;2023-10-08T08:20:50;20.80;99.90
11505;DHT22;5809;53.262;10.408;2023-10-08T08:25:46;20.80;99.90
11505;DHT22;5809;53.262;10.408;2023-10-08T08:28:30;21.10;99.90
11505;DHT22;5809;53.262;10.408;2023-10-08T08:31:02;21.20;99.90
11505;DHT22;5809;53.262;10.408;2023-10-08T08:33:30;21.20;99.90
11505;DHT22;5809;53.262;10.408;2023-10-08T08:36:19;21.20;99.90
11505;DHT22;5809;53.262;10.408;2023-10-08T08:41:14;19.30;99.90
11505;DHT22;5809;53.262;10.408;2023-10-08T08:43:44;20.80;99.90
11505;DHT22;5809;53.262;10.408;2023-10-08T08:48:42;21.70;99.90
11505;DHT22;5809;53.262;10.408;2023-10-08T08:51:09;22.20;99.90
11505;DHT22;5809;53.262;10.408;2023-10-08T08:53:39;22.20;99.90
11505;DHT22;5809;53.262;10.408;2023-10-08T08:56:08;22.40;99.90
11505;DHT22;5809;53.262;10.408;2023-10-08T08:58:36;22.40;99.90
11505;DHT22;5809;53.262;10.408;2023-10-08T09:01:06;22.30;99.90
11505;DHT22;5809;53.262;10.408;2023-10-08T09:03:35;22.10;99.90
11505;DHT22;5809;53.262;10.408;2023-10-08T09:06:03;22.30;99.90
11505;DHT22;5809;53.262;10.408;2023-10-08T09:08:33;22.80;99.90
11505;DHT22;5809;53.262;10.408;2023-10-08T09:11:02;23.30;99.90
11505;DHT22;5809;53.262;10.408;2023-10-08T09:13:30;23.10;99.90
11505;DHT22;5809;53.262;10.408;2023-10-08T09:16:07;23.20;99.90
11505;DHT22;5809;53.262;10.408;2023-10-08T09:18:34;23.30;99.90
11505;DHT22;5809;53.262;10.408;2023-10-08T09:21:08;23.60;99.90
11505;DHT22;5809;53.262;10.408;2023-10-08T09:23:39;23.60;99.90
11505;DHT22;5809;53.262;10.408;2023-10-08T09:26:10;23.70;99.90
11505;DHT22;5809;53.262;10.408;2023-10-08T09:28:39;23.30;99.90
11505;DHT22;5809;53.262;10.408;2023-10-08T09:31:10;23.10;99.90
11505;DHT22;5809;53.262;10.408;2023-10-08T09:33:37;23.30;99.90
11505;DHT22;5809;53.262;10.408;2023-10-08T09:36:04;23.80;99.90
11505;DHT22;5809;53.262;10.408;2023-10-08T09:38:33;23.90;99.90
11505;DHT22;5809;53.262;10.408;2023-10-08T09:41:00;23.70;99.90
11505;DHT22;5809;53.262;10.408;2023-10-08T09:43:30;23.90;99.90
11505;DHT22;5809;53.262;10.408;2023-10-08T09:46:06;23.90;99.90
11505;DHT22;5809;53.262;10.408;2023-10-08T09:48:37;24.20;99.90
11505;DHT22;5809;53.262;10.408;2023-10-08T09:51:05;24.10;99.90
11505;DHT22;5809;53.262;10.408;2023-10-08T09:53:40;21.90;99.90
11505;DHT22;5809;53.262;10.408;2023-10-08T09:56:13;24.20;99.90
11505;DHT22;5809;53.262;10.408;2023-10-08T09:58:43;24.40;99.90
11505;DHT22;5809;53.262;10.408;2023-10-08T10:01:11;24.60;99.90
11505;DHT22;5809;53.262;10.408;2023-10-08T10:03:38;24.90;99.90
11505;DHT22;5809;53.262;10.408;2023-10-08T10:06:12;24.90;99.90
11505;DHT22;5809;53.262;10.408;2023-10-08T10:08:41;24.90;99.90
11505;DHT22;5809;53.262;10.408;2023-10-08T10:11:08;23.90;99.90
11505;DHT22;5809;53.262;10.408;2023-10-08T10:13:39;22.90;99.90
11505;DHT22;5809;53.262;10.408;2023-10-08T10:16:08;21.70;99.90
11505;DHT22;5809;53.262;10.408;2023-10-08T10:18:35;20.70;99.90
11505;DHT22;5809;53.262;10.408;2023-10-08T10:21:24;20.10;99.90
11505;DHT22;5809;53.262;10.408;2023-10-08T10:23:53;19.80;99.90
11505;DHT22;5809;53.262;10.408;2023-10-08T10:26:25;19.60;99.90
11505;DHT22;5809;53.262;10.408;2023-10-08T10:29:19;19.50;99.90
11505;DHT22;5809;53.262;10.408;2023-10-08T10:31:49;19.40;99.90
11505;DHT22;5809;53.262;10.408;2023-10-08T10:34:20;19.20;99.90
11505;DHT22;5809;53.262;10.408;2023-10-08T10:36:48;19.80;99.90
11505;DHT22;5809;53.262;10.408;2023-10-08T10:39:16;21.00;99.90
11505;DHT22;5809;53.262;10.408;2023-10-08T10:41:53;22.20;99.90
11505;DHT22;5809;53.262;10.408;2023-10-08T10:44:23;23.60;99.90
11505;DHT22;5809;53.262;10.408;2023-10-08T10:46:51;24.00;99.90
11505;DHT22;5809;53.262;10.408;2023-10-08T10:49:38;23.50;99.90
11505;DHT22;5809;53.262;10.408;2023-10-08T10:52:14;23.00;99.90
11505;DHT22;5809;53.262;10.408;2023-10-08T10:54:44;22.50;99.90
11505;DHT22;5809;53.262;10.408;2023-10-08T10:57:24;22.30;99.90
11505;DHT22;5809;53.262;10.408;2023-10-08T11:00:03;22.20;99.90
11505;DHT22;5809;53.262;10.408;2023-10-08T11:02:55;21.80;99.90
11505;DHT22;5809;53.262;10.408;2023-10-08T11:05:25;21.40;99.90
11505;DHT22;5809;53.262;10.408;2023-10-08T11:07:54;20.90;99.90
11505;DHT22;5809;53.262;10.408;2023-10-08T11:10:26;20.50;99.90
11505;DHT22;5809;53.262;10.408;2023-10-08T11:12:54;20.10;99.90
11505;DHT22;5809;53.262;10.408;2023-10-08T11:15:25;19.70;99.90
11505;DHT22;5809;53.262;10.408;2023-10-08T11:17:57;19.50;99.90
11505;DHT22;5809;53.262;10.408;2023-10-08T11:22:52;19.40;99.90
11505;DHT22;5809;53.262;10.408;2023-10-08T11:25:21;20.60;99.90
11505;DHT22;5809;53.262;10.408;2023-10-08T11:27:53;22.40;99.90
11505;DHT22;5809;53.262;10.408;2023-10-08T11:30:27;23.40;99.90
11505;DHT22;5809;53.262;10.408;2023-10-08T11:32:59;24.70;99.90
11505;DHT22;5809;53.262;10.408;2023-10-08T11:35:26;25.70;99.90
11505;DHT22;5809;53.262;10.408;2023-10-08T11:37:59;24.80;99.90
11505;DHT22;5809;53.262;10.408;2023-10-08T11:40:27;22.90;99.90
11505;DHT22;5809;53.262;10.408;2023-10-08T11:42:55;22.90;99.90
11505;DHT22;5809;53.262;10.408;2023-10-08T11:45:24;23.00;99.90
11505;DHT22;5809;53.262;10.408;2023-10-08T11:47:52;23.10;99.90
11505;DHT22;5809;53.262;10.408;2023-10-08T11:50:26;22.80;99.90
11505;DHT22;5809;53.262;10.408;2023-10-08T11:53:01;22.30;99.90
11505;DHT22;5809;53.262;10.408;2023-10-08T11:55:29;21.90;99.90
11505;DHT22;5809;53.262;10.408;2023-10-08T11:58:00;22.30;99.90
11505;DHT22;5809;53.262;10.408;2023-10-08T12:00:35;22.90;99.90
11505;DHT22;5809;53.262;10.408;2023-10-08T12:03:09;22.80;99.90
11505;DHT22;5809;53.262;10.408;2023-10-08T12:05:39;23.00;99.90
11505;DHT22;5809;53.262;10.408;2023-10-08T12:08:13;23.70;99.90
11505;DHT22;5809;53.262;10.408;2023-10-08T12:10:42;23.60;99.90
11505;DHT22;5809;53.262;10.408;2023-10-08T12:13:08;23.20;99.90
11505;DHT22;5809;53.262;10.408;2023-10-08T12:15:36;22.60;99.90
11505;DHT22;5809;53.262;10.408;2023-10-08T12:18:05;22.10;99.90
11505;DHT22;5809;53.262;10.408;2023-10-08T12:20:40;21.70;99.90
11505;DHT22;5809;53.262;10.408;2023-10-08T12:23:09;21.40;99.90
11505;DHT22;5809;53.262;10.408;2023-10-08T12:25:37;21.40;99.90
11505;DHT22;5809;53.262;10.408;2023-10-08T12:28:04;22.50;99.90
11505;DHT22;5809;53.262;10.408;2023-10-08T12:30:32;23.30;99.90
11505;DHT22;5809;53.262;10.408;2023-10-08T12:33:07;23.50;99.90
11505;DHT22;5809;53.262;10.408;2023-10-08T12:35:40;24.10;99.90
11505;DHT22;5809;53.262;10.408;2023-10-08T12:38:07;24.30;99.90
11505;DHT22;5809;53.262;10.408;2023-10-08T12:40:34;24.50;99.90
11505;DHT22;5809;53.262;10.408;2023-10-08T12:43:14;25.50;99.90
11505;DHT22;5809;53.262;10.408;2023-10-08T12:45:45;25.80;99.90
11505;DHT22;5809;53.262;10.408;2023-10-08T12:48:18;25.50;99.90
11505;DHT22;5809;53.262;10.408;2023-10-08T12:50:46;25.50;99.90
11505;DHT22;5809;53.262;10.408;2023-10-08T12:53:20;25.60;99.90
11505;DHT22;5809;53.262;10.408;2023-10-08T12:55:50;24.70;99.90
11505;DHT22;5809;53.262;10.408;2023-10-08T12:58:19;23.80;99.90
11505;DHT22;5809;53.262;10.408;2023-10-08T13:00:51;21.10;99.90
11505;DHT22;5809;53.262;10.408;2023-10-08T13:03:23;21.10;99.90
11505;DHT22;5809;53.262;10.408;2023-10-08T13:05:52;20.30;99.90
11505;DHT22;5809;53.262;10.408;2023-10-08T13:08:19;20.30;99.90
11505;DHT22;5809;53.262;10.408;2023-10-08T13:10:46;20.40;99.90
11505;DHT22;5809;53.262;10.408;2023-10-08T13:13:13;20.40;99.90
11505;DHT22;5809;53.262;10.408;2023-10-08T13:15:40;19.90;99.90
11505;DHT22;5809;53.262;10.408;2023-10-08T13:18:08;20.00;99.90
11505;DHT22;5809;53.262;10.408;2023-10-08T13:20:35;20.10;99.90
11505;DHT22;5809;53.262;10.408;2023-10-08T13:23:04;20.70;99.90
11505;DHT22;5809;53.262;10.408;2023-10-08T13:25:31;20.70;99.90
11505;DHT22;5809;53.262;10.408;2023-10-08T13:28:01;18.90;99.90
11505;DHT22;5809;53.262;10.408;2023-10-08T13:30:28;18.20;99.90
11505;DHT22;5809;53.262;10.408;2023-10-08T13:32:55;17.50;99.90
11505;DHT22;5809;53.262;10.408;2023-10-08T13:35:22;17.30;99.90
11505;DHT22;5809;53.262;10.408;2023-10-08T13:37:49;17.10;99.90
11505;DHT22;5809;53.262;10.408;2023-10-08T13:40:17;17.00;99.90
11505;DHT22;5809;53.262;10.408;2023-10-08T13:42:44;16.90;99.90
11505;DHT22;5809;53.262;10.408;2023-10-08T13:45:11;17.00;99.90
11505;DHT22;5809;53.262;10.408;2023-10-08T13:47:51;17.30;99.90
11505;DHT22;5809;53.262;10.408;2023-10-08T13:50:18;17.40;99.90
11505;DHT22;5809;53.262;10.408;2023-10-08T13:52:47;17.50;99.90
11505;DHT22;5809;53.262;10.408;2023-10-08T13:57:46;17.90;99.90
11505;DHT22;5809;53.262;10.408;2023-10-08T14:00:14;18.10;99.90
11505;DHT22;5809;53.262;10.408;2023-10-08T14:02:42;17.80;99.90
11505;DHT22;5809;53.262;10.408;2023-10-08T14:05:10;17.70;99.90
11505;DHT22;5809;53.262;10.408;2023-10-08T14:07:41;17.50;99.90
11505;DHT22;5809;53.262;10.408;2023-10-08T14:10:10;17.30;99.90
11505;DHT22;5809;53.262;10.408;2023-10-08T14:12:46;17.10;99.90
11505;DHT22;5809;53.262;10.408;2023-10-08T14:15:15;17.00;99.90
11505;DHT22;5809;53.262;10.408;2023-10-08T14:17:43;16.90;99.90
11505;DHT22;5809;53.262;10.408;2023-10-08T14:20:14;16.80;99.90
11505;DHT22;5809;53.262;10.408;2023-10-08T14:22:47;16.60;99.90
11505;DHT22;5809;53.262;10.408;2023-10-08T14:27:51;16.80;99.90
11505;DHT22;5809;53.262;10.408;2023-10-08T14:30:18;16.80;99.90
11505;DHT22;5809;53.262;10.408;2023-10-08T14:32:47;16.90;99.90
11505;DHT22;5809;53.262;10.408;2023-10-08T14:35:14;17.00;99.90
11505;DHT22;5809;53.262;10.408;2023-10-08T14:37:59;16.70;99.90
11505;DHT22;5809;53.262;10.408;2023-10-08T14:40:43;16.60;99.90
11505;DHT22;5809;53.262;10.408;2023-10-08T14:43:29;16.50;99.90
11505;DHT22;5809;53.262;10.408;2023-10-08T14:46:00;16.40;99.90
11505;DHT22;5809;53.262;10.408;2023-10-08T14:48:30;16.40;99.90
11505;DHT22;5809;53.262;10.408;2023-10-08T14:50:59;16.30;99.90
11505;DHT22;5809;53.262;10.408;2023-10-08T14:53:27;16.20;99.90
11505;DHT22;5809;53.262;10.408;2023-10-08T14:55:53;16.10;99.90
11505;DHT22;5809;53.262;10.408;2023-10-08T14:58:21;16.00;99.90
11505;DHT22;5809;53.262;10.408;2023-10-08T15:00:49;15.80;99.90
11505;DHT22;5809;53.262;10.408;2023-10-08T15:05:47;15.70;99.90
11505;DHT22;5809;53.262;10.408;2023-10-08T15:08:15;15.70;99.90
11505;DHT22;5809;53.262;10.408;2023-10-08T15:10:44;15.60;99.90
11505;DHT22;5809;53.262;10.408;2023-10-08T15:13:12;15.60;99.90
11505;DHT22;5809;53.262;10.408;2023-10-08T15:15:39;15.60;99.90
11505;DHT22;5809;53.262;10.408;2023-10-08T15:18:09;15.60;99.90
11505;DHT22;5809;53.262;10.408;2023-10-08T15:20:37;15.60;99.90
11505;DHT22;5809;53.262;10.408;2023-10-08T15:23:06;15.40;99.90
11505;DHT22;5809;53.262;10.408;2023-10-08T15:25:37;15.40;1.00
11505;DHT22;5809;53.262;10.408;2023-10-08T15:28:04;15.30;99.90
11505;DHT22;5809;53.262;10.408;2023-10-08T15:32:59;15.10;99.90
11505;DHT22;5809;53.262;10.408;2023-10-08T15:35:27;15.10;99.90
11505;DHT22;5809;53.262;10.408;2023-10-08T15:37:53;15.00;99.90
11505;DHT22;5809;53.262;10.408;2023-10-08T15:40:21;15.10;99.90
11505;DHT22;5809;53.262;10.408;2023-10-08T15:42:49;15.20;99.90
11505;DHT22;5809;53.262;10.408;2023-10-08T15:45:17;15.80;99.90
11505;DHT22;5809;53.262;10.408;2023-10-08T15:47:44;15.10;99.90
11505;DHT22;5809;53.262;10.408;2023-10-08T15:50:11;15.00;99.90
11505;DHT22;5809;53.262;10.408;2023-10-08T15:52:39;15.30;99.90
11505;DHT22;5809;53.262;10.408;2023-10-08T15:55:07;15.00;99.90
11505;DHT22;5809;53.262;10.408;2023-10-08T15:57:36;14.80;99.90
11505;DHT22;5809;53.262;10.408;2023-10-08T16:00:04;14.70;99.90
11505;DHT22;5809;53.262;10.408;2023-10-08T16:02:31;14.70;99.90
11505;DHT22;5809;53.262;10.408;2023-10-08T16:04:58;15.60;99.90
11505;DHT22;5809;53.262;10.408;2023-10-08T16:07:25;15.50;99.90
11505;DHT22;5809;53.262;10.408;2023-10-08T16:09:53;14.70;99.90
11505;DHT22;5809;53.262;10.408;2023-10-08T16:12:20;15.90;99.90
11505;DHT22;5809;53.262;10.408;2023-10-08T16:14:46;15.90;99.90
11505;DHT22;5809;53.262;10.408;2023-10-08T16:17:13;14.50;99.90
11505;DHT22;5809;53.262;10.408;2023-10-08T16:19:41;14.40;99.90
11505;DHT22;5809;53.262;10.408;2023-10-08T16:22:08;14.40;99.90
11505;DHT22;5809;53.262;10.408;2023-10-08T16:24:36;14.30;99.90
11505;DHT22;5809;53.262;10.408;2023-10-08T16:27:05;14.30;99.90
11505;DHT22;5809;53.262;10.408;2023-10-08T16:29:33;14.30;99.90
11505;DHT22;5809;53.262;10.408;2023-10-08T16:32:01;14.40;99.90
11505;DHT22;5809;53.262;10.408;2023-10-08T16:34:28;14.20;99.90
11505;DHT22;5809;53.262;10.408;2023-10-08T16:36:55;14.20;99.90
11505;DHT22;5809;53.262;10.408;2023-10-08T16:39:22;14.40;99.90
11505;DHT22;5809;53.262;10.408;2023-10-08T16:41:51;14.10;99.90
11505;DHT22;5809;53.262;10.408;2023-10-08T16:44:20;14.10;99.90
11505;DHT22;5809;53.262;10.408;2023-10-08T16:46:48;14.90;99.90
11505;DHT22;5809;53.262;10.408;2023-10-08T16:49:16;14.30;99.90
11505;DHT22;5809;53.262;10.408;2023-10-08T16:51:44;15.40;99.90
11505;DHT22;5809;53.262;10.408;2023-10-08T16:54:10;15.50;99.90
11505;DHT22;5809;53.262;10.408;2023-10-08T16:56:40;13.90;99.90
11505;DHT22;5809;53.262;10.408;2023-10-08T16:59:07;14.60;99.90
11505;DHT22;5809;53.262;10.408;2023-10-08T17:01:37;14.40;99.90
11505;DHT22;5809;53.262;10.408;2023-10-08T17:04:06;14.50;99.90
11505;DHT22;5809;53.262;10.408;2023-10-08T17:06:33;13.80;99.90
11505;DHT22;5809;53.262;10.408;2023-10-08T17:09:00;13.70;99.90
11505;DHT22;5809;53.262;10.408;2023-10-08T17:11:26;14.00;99.90
11505;DHT22;5809;53.262;10.408;2023-10-08T17:13:53;13.60;99.90
11505;DHT22;5809;53.262;10.408;2023-10-08T17:16:20;13.60;99.90
11505;DHT22;5809;53.262;10.408;2023-10-08T17:18:49;13.80;99.90
11505;DHT22;5809;53.262;10.408;2023-10-08T17:21:16;14.30;99.90
11505;DHT22;5809;53.262;10.408;2023-10-08T17:23:45;13.80;99.90
11505;DHT22;5809;53.262;10.408;2023-10-08T17:26:11;14.20;99.90
11505;DHT22;5809;53.262;10.408;2023-10-08T17:28:39;13.50;99.90
11505;DHT22;5809;53.262;10.408;2023-10-08T17:31:07;15.00;99.90
11505;DHT22;5809;53.262;10.408;2023-10-08T17:33:36;13.40;99.90
11505;DHT22;5809;53.262;10.408;2023-10-08T17:36:06;13.50;99.90
11505;DHT22;5809;53.262;10.408;2023-10-08T17:38:33;13.40;99.90
11505;DHT22;5809;53.262;10.408;2023-10-08T17:41:00;13.40;99.90
11505;DHT22;5809;53.262;10.408;2023-10-08T17:43:27;13.50;99.90
11505;DHT22;5809;53.262;10.408;2023-10-08T17:45:54;13.40;99.90
11505;DHT22;5809;53.262;10.408;2023-10-08T17:48:21;15.50;99.90
11505;DHT22;5809;53.262;10.408;2023-10-08T17:50:49;13.90;99.90
11505;DHT22;5809;53.262;10.408;2023-10-08T17:53:18;13.40;99.90
11505;DHT22;5809;53.262;10.408;2023-10-08T17:58:13;13.30;99.90
11505;DHT22;5809;53.262;10.408;2023-10-08T18:00:42;13.30;99.90
11505;DHT22;5809;53.262;10.408;2023-10-08T18:03:09;13.40;99.90
11505;DHT22;5809;53.262;10.408;2023-10-08T18:05:38;13.30;99.90
11505;DHT22;5809;53.262;10.408;2023-10-08T18:08:05;13.30;99.90